sensor_id;sensor_type;location;lat;lon;timestamp;P1;durP1;ratioP1;P2;durP2;ratioP2
11004;SDS011;5555;59.622;16.556;2023-07-30T00:00:45;5.40;;;4.57;;
11004;SDS011;5555;59.622;16.556;2023-07-30T00:03:13;6.10;;;5.50;;
11004;SDS011;5555;59.622;16.556;2023-07-30T00:05:38;6.97;;;4.77;;
11004;SDS011;5555;59.622;16.556;2023-07-30T00:08:04;5.20;;;4.70;;
11004;SDS011;5555;59.622;16.556;2023-07-30T00:10:30;4.93;;;4.40;;
11004;SDS011;5555;59.622;16.556;2023-07-30T00:12:55;6.67;;;5.47;;
11004;SDS011;5555;59.622;16.556;2023-07-30T00:15:21;5.10;;;4.70;;
11004;SDS011;5555;59.622;16.556;2023-07-30T00:17:47;5.90;;;4.93;;
11004;SDS011;5555;59.622;16.556;2023-07-30T00:20:12;5.53;;;5.03;;
11004;SDS011;5555;59.622;16.556;2023-07-30T00:22:38;5.83;;;5.33;;
11004;SDS011;5555;59.622;16.556;2023-07-30T00:25:04;5.70;;;5.10;;
11004;SDS011;5555;59.622;16.556;2023-07-30T00:27:29;5.63;;;4.77;;
11004;SDS011;5555;59.622;16.556;2023-07-30T00:29:55;7.53;;;4.87;;
11004;SDS011;5555;59.622;16.556;2023-07-30T00:32:21;5.47;;;4.97;;
11004;SDS011;5555;59.622;16.556;2023-07-30T00:34:46;6.00;;;5.00;;
11004;SDS011;5555;59.622;16.556;2023-07-30T00:37:12;5.10;;;4.70;;
11004;SDS011;5555;59.622;16.556;2023-07-30T00:39:37;5.10;;;4.67;;
11004;SDS011;5555;59.622;16.556;2023-07-30T00:42:03;4.90;;;4.40;;
11004;SDS011;5555;59.622;16.556;2023-07-30T00:44:29;6.07;;;5.10;;
11004;SDS011;5555;59.622;16.556;2023-07-30T00:46:55;5.60;;;5.10;;
11004;SDS011;5555;59.622;16.556;2023-07-30T00:49:20;5.17;;;4.77;;
11004;SDS011;5555;59.622;16.556;2023-07-30T00:51:46;5.63;;;5.13;;
11004;SDS011;5555;59.622;16.556;2023-07-30T00:54:12;5.20;;;4.73;;
11004;SDS011;5555;59.622;16.556;2023-07-30T00:56:37;5.23;;;4.73;;
11004;SDS011;5555;59.622;16.556;2023-07-30T00:59:06;5.97;;;5.47;;
11004;SDS011;5555;59.622;16.556;2023-07-30T01:01:33;5.83;;;5.13;;
11004;SDS011;5555;59.622;16.556;2023-07-30T01:04:01;6.27;;;5.30;;
11004;SDS011;5555;59.622;16.556;2023-07-30T01:06:27;5.33;;;4.90;;
11004;SDS011;5555;59.622;16.556;2023-07-30T01:08:52;5.87;;;5.17;;
11004;SDS011;5555;59.622;16.556;2023-07-30T01:11:18;5.20;;;4.70;;
11004;SDS011;5555;59.622;16.556;2023-07-30T01:13:44;5.60;;;4.53;;
11004;SDS011;5555;59.622;16.556;2023-07-30T01:16:10;5.27;;;4.83;;
11004;SDS011;5555;59.622;16.556;2023-07-30T01:18:36;5.03;;;4.57;;
11004;SDS011;5555;59.622;16.556;2023-07-30T01:21:02;5.50;;;5.00;;
11004;SDS011;5555;59.622;16.556;2023-07-30T01:23:27;5.23;;;4.73;;
11004;SDS011;5555;59.622;16.556;2023-07-30T01:25:57;5.63;;;5.10;;
11004;SDS011;5555;59.622;16.556;2023-07-30T01:28:27;5.17;;;4.60;;
11004;SDS011;5555;59.622;16.556;2023-07-30T01:30:55;5.07;;;4.67;;
11004;SDS011;5555;59.622;16.556;2023-07-30T01:33:23;5.10;;;4.60;;
11004;SDS011;5555;59.622;16.556;2023-07-30T01:35:50;5.60;;;5.00;;
11004;SDS011;5555;59.622;16.556;2023-07-30T01:38:16;5.83;;;5.27;;
11004;SDS011;5555;59.622;16.556;2023-07-30T01:40:41;6.07;;;5.57;;
11004;SDS011;5555;59.622;16.556;2023-07-30T01:43:07;5.10;;;4.70;;
11004;SDS011;5555;59.622;16.556;2023-07-30T01:45:33;6.10;;;5.50;;
11004;SDS011;5555;59.622;16.556;2023-07-30T01:47:59;5.60;;;5.10;;
11004;SDS011;5555;59.622;16.556;2023-07-30T01:50:25;5.93;;;5.33;;
11004;SDS011;5555;59.622;16.556;2023-07-30T01:52:51;5.30;;;4.90;;
11004;SDS011;5555;59.622;16.556;2023-07-30T01:55:16;5.67;;;5.10;;
11004;SDS011;5555;59.622;16.556;2023-07-30T01:57:42;5.80;;;5.30;;
11004;SDS011;5555;59.622;16.556;2023-07-30T02:00:07;7.23;;;5.33;;
11004;SDS011;5555;59.622;16.556;2023-07-30T02:02:33;6.17;;;5.57;;
11004;SDS011;5555;59.622;16.556;2023-07-30T02:05:00;5.77;;;5.17;;
11004;SDS011;5555;59.622;16.556;2023-07-30T02:07:26;5.83;;;5.33;;
11004;SDS011;5555;59.622;16.556;2023-07-30T02:09:51;5.40;;;4.90;;
11004;SDS011;5555;59.622;16.556;2023-07-30T02:12:17;5.70;;;5.10;;
11004;SDS011;5555;59.622;16.556;2023-07-30T02:14:43;6.77;;;5.03;;
11004;SDS011;5555;59.622;16.556;2023-07-30T02:17:09;6.33;;;4.90;;
11004;SDS011;5555;59.622;16.556;2023-07-30T02:19:34;5.50;;;5.00;;
11004;SDS011;5555;59.622;16.556;2023-07-30T02:22:00;6.10;;;5.57;;
11004;SDS011;5555;59.622;16.556;2023-07-30T02:24:26;5.90;;;4.90;;
11004;SDS011;5555;59.622;16.556;2023-07-30T02:26:51;5.73;;;4.87;;
11004;SDS011;5555;59.622;16.556;2023-07-30T02:29:17;5.33;;;4.83;;
11004;SDS011;5555;59.622;16.556;2023-07-30T02:31:42;6.10;;;5.50;;
11004;SDS011;5555;59.622;16.556;2023-07-30T02:34:08;5.73;;;5.17;;
11004;SDS011;5555;59.622;16.556;2023-07-30T02:36:33;6.20;;;4.97;;
11004;SDS011;5555;59.622;16.556;2023-07-30T02:39:00;6.13;;;4.57;;
11004;SDS011;5555;59.622;16.556;2023-07-30T02:41:26;5.60;;;5.00;;
11004;SDS011;5555;59.622;16.556;2023-07-30T02:43:51;5.80;;;5.30;;
11004;SDS011;5555;59.622;16.556;2023-07-30T02:46:17;6.17;;;4.73;;
11004;SDS011;5555;59.622;16.556;2023-07-30T02:48:42;6.87;;;5.73;;
11004;SDS011;5555;59.622;16.556;2023-07-30T02:51:08;5.70;;;5.20;;
11004;SDS011;5555;59.622;16.556;2023-07-30T02:53:34;5.17;;;4.63;;
11004;SDS011;5555;59.622;16.556;2023-07-30T02:55:59;5.83;;;5.33;;
11004;SDS011;5555;59.622;16.556;2023-07-30T02:58:25;5.37;;;4.87;;
11004;SDS011;5555;59.622;16.556;2023-07-30T03:00:50;5.50;;;5.00;;
11004;SDS011;5555;59.622;16.556;2023-07-30T03:03:16;5.20;;;4.80;;
11004;SDS011;5555;59.622;16.556;2023-07-30T03:05:42;5.63;;;5.13;;
11004;SDS011;5555;59.622;16.556;2023-07-30T03:08:08;5.00;;;4.60;;
11004;SDS011;5555;59.622;16.556;2023-07-30T03:10:33;7.83;;;5.13;;
11004;SDS011;5555;59.622;16.556;2023-07-30T03:13:01;4.37;;;4.07;;
11004;SDS011;5555;59.622;16.556;2023-07-30T03:15:27;5.20;;;4.70;;
11004;SDS011;5555;59.622;16.556;2023-07-30T03:17:52;5.47;;;4.90;;
11004;SDS011;5555;59.622;16.556;2023-07-30T03:20:18;5.13;;;4.63;;
11004;SDS011;5555;59.622;16.556;2023-07-30T03:22:44;6.07;;;4.73;;
11004;SDS011;5555;59.622;16.556;2023-07-30T03:25:09;5.27;;;4.87;;
11004;SDS011;5555;59.622;16.556;2023-07-30T03:27:35;5.47;;;4.77;;
11004;SDS011;5555;59.622;16.556;2023-07-30T03:30:01;6.63;;;5.10;;
11004;SDS011;5555;59.622;16.556;2023-07-30T03:32:26;4.90;;;4.37;;
11004;SDS011;5555;59.622;16.556;2023-07-30T03:34:52;4.67;;;4.37;;
11004;SDS011;5555;59.622;16.556;2023-07-30T03:37:18;4.93;;;4.53;;
11004;SDS011;5555;59.622;16.556;2023-07-30T03:39:43;5.50;;;4.77;;
11004;SDS011;5555;59.622;16.556;2023-07-30T03:42:09;6.07;;;4.53;;
11004;SDS011;5555;59.622;16.556;2023-07-30T03:44:35;6.63;;;4.60;;
11004;SDS011;5555;59.622;16.556;2023-07-30T03:47:01;5.00;;;4.33;;
11004;SDS011;5555;59.622;16.556;2023-07-30T03:49:26;4.43;;;4.07;;
11004;SDS011;5555;59.622;16.556;2023-07-30T03:51:52;4.47;;;4.17;;
11004;SDS011;5555;59.622;16.556;2023-07-30T03:54:17;5.03;;;4.53;;
11004;SDS011;5555;59.622;16.556;2023-07-30T03:56:43;4.80;;;4.40;;
11004;SDS011;5555;59.622;16.556;2023-07-30T03:59:09;4.17;;;3.77;;
11004;SDS011;5555;59.622;16.556;2023-07-30T04:01:34;6.13;;;4.03;;
11004;SDS011;5555;59.622;16.556;2023-07-30T04:04:00;4.37;;;3.97;;
11004;SDS011;5555;59.622;16.556;2023-07-30T04:06:25;4.57;;;4.17;;
11004;SDS011;5555;59.622;16.556;2023-07-30T04:08:51;4.97;;;4.10;;
11004;SDS011;5555;59.622;16.556;2023-07-30T04:11:16;4.63;;;4.10;;
11004;SDS011;5555;59.622;16.556;2023-07-30T04:13:42;3.90;;;3.60;;
11004;SDS011;5555;59.622;16.556;2023-07-30T04:16:08;5.57;;;4.47;;
11004;SDS011;5555;59.622;16.556;2023-07-30T04:18:33;4.50;;;4.10;;
11004;SDS011;5555;59.622;16.556;2023-07-30T04:20:59;4.13;;;3.80;;
11004;SDS011;5555;59.622;16.556;2023-07-30T04:23:24;4.40;;;4.00;;
11004;SDS011;5555;59.622;16.556;2023-07-30T04:25:50;4.60;;;4.20;;
11004;SDS011;5555;59.622;16.556;2023-07-30T04:28:16;3.97;;;3.67;;
11004;SDS011;5555;59.622;16.556;2023-07-30T04:30:42;5.63;;;4.03;;
11004;SDS011;5555;59.622;16.556;2023-07-30T04:33:07;4.03;;;3.33;;
11004;SDS011;5555;59.622;16.556;2023-07-30T04:35:33;4.67;;;4.33;;
11004;SDS011;5555;59.622;16.556;2023-07-30T04:37:59;3.90;;;3.50;;
11004;SDS011;5555;59.622;16.556;2023-07-30T04:40:24;4.20;;;3.90;;
11004;SDS011;5555;59.622;16.556;2023-07-30T04:42:50;4.70;;;4.30;;
11004;SDS011;5555;59.622;16.556;2023-07-30T04:45:16;4.70;;;4.30;;
11004;SDS011;5555;59.622;16.556;2023-07-30T04:47:42;4.53;;;3.70;;
11004;SDS011;5555;59.622;16.556;2023-07-30T04:50:08;4.83;;;4.10;;
11004;SDS011;5555;59.622;16.556;2023-07-30T04:52:33;6.33;;;4.10;;
11004;SDS011;5555;59.622;16.556;2023-07-30T04:54:59;4.07;;;3.77;;
11004;SDS011;5555;59.622;16.556;2023-07-30T04:57:25;3.87;;;3.30;;
11004;SDS011;5555;59.622;16.556;2023-07-30T04:59:51;5.43;;;3.93;;
11004;SDS011;5555;59.622;16.556;2023-07-30T05:02:16;5.43;;;3.87;;
11004;SDS011;5555;59.622;16.556;2023-07-30T05:04:42;4.27;;;3.87;;
11004;SDS011;5555;59.622;16.556;2023-07-30T05:07:07;4.07;;;3.77;;
11004;SDS011;5555;59.622;16.556;2023-07-30T05:09:33;4.00;;;3.70;;
11004;SDS011;5555;59.622;16.556;2023-07-30T05:11:59;5.87;;;4.07;;
11004;SDS011;5555;59.622;16.556;2023-07-30T05:14:24;4.07;;;3.67;;
11004;SDS011;5555;59.622;16.556;2023-07-30T05:16:50;3.70;;;3.40;;
11004;SDS011;5555;59.622;16.556;2023-07-30T05:19:16;4.50;;;3.30;;
11004;SDS011;5555;59.622;16.556;2023-07-30T05:21:41;3.80;;;3.40;;
11004;SDS011;5555;59.622;16.556;2023-07-30T05:24:07;4.03;;;3.73;;
11004;SDS011;5555;59.622;16.556;2023-07-30T05:26:33;4.60;;;3.60;;
11004;SDS011;5555;59.622;16.556;2023-07-30T05:28:58;4.93;;;3.57;;
11004;SDS011;5555;59.622;16.556;2023-07-30T05:31:24;4.73;;;3.83;;
11004;SDS011;5555;59.622;16.556;2023-07-30T05:33:49;4.37;;;3.97;;
11004;SDS011;5555;59.622;16.556;2023-07-30T05:36:15;3.87;;;3.47;;
11004;SDS011;5555;59.622;16.556;2023-07-30T05:38:40;4.13;;;3.70;;
11004;SDS011;5555;59.622;16.556;2023-07-30T05:41:06;4.87;;;3.77;;
11004;SDS011;5555;59.622;16.556;2023-07-30T05:43:32;4.57;;;3.20;;
11004;SDS011;5555;59.622;16.556;2023-07-30T05:45:57;4.10;;;3.50;;
11004;SDS011;5555;59.622;16.556;2023-07-30T05:48:23;4.77;;;3.73;;
11004;SDS011;5555;59.622;16.556;2023-07-30T05:50:49;4.00;;;3.70;;
11004;SDS011;5555;59.622;16.556;2023-07-30T05:53:14;4.07;;;3.77;;
11004;SDS011;5555;59.622;16.556;2023-07-30T05:55:40;3.93;;;3.63;;
11004;SDS011;5555;59.622;16.556;2023-07-30T05:58:06;4.00;;;3.60;;
11004;SDS011;5555;59.622;16.556;2023-07-30T06:00:32;4.13;;;3.47;;
11004;SDS011;5555;59.622;16.556;2023-07-30T06:02:57;4.40;;;3.77;;
11004;SDS011;5555;59.622;16.556;2023-07-30T06:05:23;3.83;;;3.33;;
11004;SDS011;5555;59.622;16.556;2023-07-30T06:07:48;4.30;;;3.90;;
11004;SDS011;5555;59.622;16.556;2023-07-30T06:10:14;4.37;;;4.00;;
11004;SDS011;5555;59.622;16.556;2023-07-30T06:12:40;4.37;;;3.80;;
11004;SDS011;5555;59.622;16.556;2023-07-30T06:15:06;4.47;;;4.07;;
11004;SDS011;5555;59.622;16.556;2023-07-30T06:17:32;4.20;;;3.80;;
11004;SDS011;5555;59.622;16.556;2023-07-30T06:19:57;4.23;;;3.80;;
11004;SDS011;5555;59.622;16.556;2023-07-30T06:22:23;4.07;;;3.77;;
11004;SDS011;5555;59.622;16.556;2023-07-30T06:24:48;3.67;;;3.30;;
11004;SDS011;5555;59.622;16.556;2023-07-30T06:27:14;4.47;;;3.60;;
11004;SDS011;5555;59.622;16.556;2023-07-30T06:29:40;6.40;;;3.70;;
11004;SDS011;5555;59.622;16.556;2023-07-30T06:32:05;3.53;;;3.23;;
11004;SDS011;5555;59.622;16.556;2023-07-30T06:34:31;3.80;;;3.40;;
11004;SDS011;5555;59.622;16.556;2023-07-30T06:36:57;3.90;;;3.60;;
11004;SDS011;5555;59.622;16.556;2023-07-30T06:39:23;4.43;;;3.67;;
11004;SDS011;5555;59.622;16.556;2023-07-30T06:41:48;4.37;;;3.97;;
11004;SDS011;5555;59.622;16.556;2023-07-30T06:44:14;3.50;;;3.23;;
11004;SDS011;5555;59.622;16.556;2023-07-30T06:46:39;3.80;;;3.50;;
11004;SDS011;5555;59.622;16.556;2023-07-30T06:49:06;5.20;;;3.70;;
11004;SDS011;5555;59.622;16.556;2023-07-30T06:51:31;3.90;;;3.60;;
11004;SDS011;5555;59.622;16.556;2023-07-30T06:53:57;4.00;;;3.20;;
11004;SDS011;5555;59.622;16.556;2023-07-30T06:56:23;4.10;;;3.30;;
11004;SDS011;5555;59.622;16.556;2023-07-30T06:58:48;3.80;;;3.50;;
11004;SDS011;5555;59.622;16.556;2023-07-30T07:01:14;4.87;;;3.43;;
11004;SDS011;5555;59.622;16.556;2023-07-30T07:03:39;4.10;;;3.70;;
11004;SDS011;5555;59.622;16.556;2023-07-30T07:06:05;4.20;;;3.80;;
11004;SDS011;5555;59.622;16.556;2023-07-30T07:08:30;3.70;;;3.40;;
11004;SDS011;5555;59.622;16.556;2023-07-30T07:10:56;3.67;;;3.37;;
11004;SDS011;5555;59.622;16.556;2023-07-30T07:13:22;3.67;;;3.27;;
11004;SDS011;5555;59.622;16.556;2023-07-30T07:15:47;3.53;;;3.10;;
11004;SDS011;5555;59.622;16.556;2023-07-30T07:18:13;4.20;;;3.67;;
11004;SDS011;5555;59.622;16.556;2023-07-30T07:20:38;3.87;;;3.57;;
11004;SDS011;5555;59.622;16.556;2023-07-30T07:23:04;3.87;;;3.50;;
11004;SDS011;5555;59.622;16.556;2023-07-30T07:25:30;3.73;;;3.33;;
11004;SDS011;5555;59.622;16.556;2023-07-30T07:27:56;3.97;;;3.57;;
11004;SDS011;5555;59.622;16.556;2023-07-30T07:30:21;3.60;;;3.30;;
11004;SDS011;5555;59.622;16.556;2023-07-30T07:32:47;3.70;;;3.27;;
11004;SDS011;5555;59.622;16.556;2023-07-30T07:35:16;3.80;;;3.50;;
11004;SDS011;5555;59.622;16.556;2023-07-30T07:37:43;3.70;;;3.40;;
11004;SDS011;5555;59.622;16.556;2023-07-30T07:40:09;3.93;;;3.50;;
11004;SDS011;5555;59.622;16.556;2023-07-30T07:42:34;4.20;;;3.43;;
11004;SDS011;5555;59.622;16.556;2023-07-30T07:45:00;4.23;;;3.80;;
11004;SDS011;5555;59.622;16.556;2023-07-30T07:47:26;3.83;;;3.53;;
11004;SDS011;5555;59.622;16.556;2023-07-30T07:49:52;5.13;;;4.20;;
11004;SDS011;5555;59.622;16.556;2023-07-30T07:52:17;5.03;;;3.80;;
11004;SDS011;5555;59.622;16.556;2023-07-30T07:54:44;4.07;;;3.67;;
11004;SDS011;5555;59.622;16.556;2023-07-30T07:57:10;4.20;;;3.80;;
11004;SDS011;5555;59.622;16.556;2023-07-30T07:59:36;5.10;;;4.60;;
11004;SDS011;5555;59.622;16.556;2023-07-30T08:02:01;5.03;;;4.40;;
11004;SDS011;5555;59.622;16.556;2023-07-30T08:04:27;5.70;;;4.13;;
11004;SDS011;5555;59.622;16.556;2023-07-30T08:06:53;4.70;;;4.30;;
11004;SDS011;5555;59.622;16.556;2023-07-30T08:09:18;4.63;;;4.23;;
11004;SDS011;5555;59.622;16.556;2023-07-30T08:11:44;4.30;;;4.00;;
11004;SDS011;5555;59.622;16.556;2023-07-30T08:14:10;4.23;;;3.80;;
11004;SDS011;5555;59.622;16.556;2023-07-30T08:16:35;4.40;;;4.03;;
11004;SDS011;5555;59.622;16.556;2023-07-30T08:19:01;4.73;;;4.30;;
11004;SDS011;5555;59.622;16.556;2023-07-30T08:21:27;4.60;;;4.20;;
11004;SDS011;5555;59.622;16.556;2023-07-30T08:23:52;5.70;;;4.53;;
11004;SDS011;5555;59.622;16.556;2023-07-30T08:26:18;5.10;;;4.50;;
11004;SDS011;5555;59.622;16.556;2023-07-30T08:28:43;5.17;;;4.50;;
11004;SDS011;5555;59.622;16.556;2023-07-30T08:31:09;4.93;;;4.50;;
11004;SDS011;5555;59.622;16.556;2023-07-30T08:33:35;5.27;;;4.77;;
11004;SDS011;5555;59.622;16.556;2023-07-30T08:36:00;6.33;;;4.60;;
11004;SDS011;5555;59.622;16.556;2023-07-30T08:38:26;5.07;;;4.67;;
11004;SDS011;5555;59.622;16.556;2023-07-30T08:40:53;6.93;;;5.33;;
11004;SDS011;5555;59.622;16.556;2023-07-30T08:43:18;6.17;;;4.93;;
11004;SDS011;5555;59.622;16.556;2023-07-30T08:45:44;4.83;;;4.33;;
11004;SDS011;5555;59.622;16.556;2023-07-30T08:48:10;6.50;;;4.80;;
11004;SDS011;5555;59.622;16.556;2023-07-30T08:50:35;5.27;;;4.87;;
11004;SDS011;5555;59.622;16.556;2023-07-30T08:53:02;4.70;;;4.30;;
11004;SDS011;5555;59.622;16.556;2023-07-30T08:55:28;4.97;;;4.30;;
11004;SDS011;5555;59.622;16.556;2023-07-30T08:57:55;4.50;;;4.13;;
11004;SDS011;5555;59.622;16.556;2023-07-30T09:00:23;4.00;;;3.60;;
11004;SDS011;5555;59.622;16.556;2023-07-30T09:05:17;3.97;;;3.50;;
11004;SDS011;5555;59.622;16.556;2023-07-30T09:07:47;4.00;;;3.70;;
11004;SDS011;5555;59.622;16.556;2023-07-30T09:10:13;4.97;;;3.83;;
11004;SDS011;5555;59.622;16.556;2023-07-30T09:12:40;5.00;;;4.10;;
11004;SDS011;5555;59.622;16.556;2023-07-30T09:15:05;5.57;;;3.97;;
11004;SDS011;5555;59.622;16.556;2023-07-30T09:17:32;5.47;;;3.47;;
11004;SDS011;5555;59.622;16.556;2023-07-30T09:20:01;4.10;;;3.80;;
11004;SDS011;5555;59.622;16.556;2023-07-30T09:22:29;4.23;;;3.80;;
11004;SDS011;5555;59.622;16.556;2023-07-30T09:24:58;5.97;;;4.07;;
11004;SDS011;5555;59.622;16.556;2023-07-30T09:27:26;4.47;;;3.53;;
11004;SDS011;5555;59.622;16.556;2023-07-30T09:29:58;5.07;;;4.40;;
11004;SDS011;5555;59.622;16.556;2023-07-30T09:32:28;4.70;;;4.30;;
11004;SDS011;5555;59.622;16.556;2023-07-30T09:37:37;5.50;;;5.00;;
11004;SDS011;5555;59.622;16.556;2023-07-30T09:40:05;4.50;;;4.10;;
11004;SDS011;5555;59.622;16.556;2023-07-30T09:42:32;5.47;;;4.73;;
11004;SDS011;5555;59.622;16.556;2023-07-30T09:45:00;5.20;;;4.80;;
11004;SDS011;5555;59.622;16.556;2023-07-30T09:47:26;4.83;;;4.43;;
11004;SDS011;5555;59.622;16.556;2023-07-30T09:49:53;5.00;;;4.50;;
11004;SDS011;5555;59.622;16.556;2023-07-30T09:52:19;5.93;;;4.73;;
11004;SDS011;5555;59.622;16.556;2023-07-30T09:54:47;4.97;;;4.47;;
11004;SDS011;5555;59.622;16.556;2023-07-30T09:57:15;5.57;;;4.40;;
11004;SDS011;5555;59.622;16.556;2023-07-30T09:59:40;5.93;;;5.00;;
11004;SDS011;5555;59.622;16.556;2023-07-30T10:02:06;4.60;;;4.30;;
11004;SDS011;5555;59.622;16.556;2023-07-30T10:04:35;6.00;;;4.43;;
11004;SDS011;5555;59.622;16.556;2023-07-30T10:07:08;5.23;;;4.70;;
11004;SDS011;5555;59.622;16.556;2023-07-30T10:09:39;4.87;;;4.43;;
11004;SDS011;5555;59.622;16.556;2023-07-30T10:12:11;5.27;;;4.77;;
11004;SDS011;5555;59.622;16.556;2023-07-30T10:14:40;5.37;;;4.60;;
11004;SDS011;5555;59.622;16.556;2023-07-30T10:17:09;4.97;;;4.50;;
11004;SDS011;5555;59.622;16.556;2023-07-30T10:19:35;3.90;;;3.50;;
11004;SDS011;5555;59.622;16.556;2023-07-30T10:22:19;5.20;;;4.07;;
11004;SDS011;5555;59.622;16.556;2023-07-30T10:24:56;5.07;;;3.90;;
11004;SDS011;5555;59.622;16.556;2023-07-30T10:27:24;5.40;;;4.90;;
11004;SDS011;5555;59.622;16.556;2023-07-30T10:30:07;5.67;;;4.10;;
11004;SDS011;5555;59.622;16.556;2023-07-30T10:32:39;3.83;;;3.53;;
11004;SDS011;5555;59.622;16.556;2023-07-30T10:35:06;4.78;;;3.10;;
11004;SDS011;5555;59.622;16.556;2023-07-30T10:37:31;3.47;;;3.17;;
11004;SDS011;5555;59.622;16.556;2023-07-30T10:39:57;3.47;;;3.17;;
11004;SDS011;5555;59.622;16.556;2023-07-30T10:42:23;3.22;;;2.70;;
11004;SDS011;5555;59.622;16.556;2023-07-30T10:44:48;3.47;;;3.03;;
11004;SDS011;5555;59.622;16.556;2023-07-30T10:47:14;3.30;;;3.00;;
11004;SDS011;5555;59.622;16.556;2023-07-30T10:49:40;3.45;;;3.15;;
11004;SDS011;5555;59.622;16.556;2023-07-30T10:52:10;3.40;;;3.10;;
11004;SDS011;5555;59.622;16.556;2023-07-30T10:54:36;3.60;;;3.00;;
11004;SDS011;5555;59.622;16.556;2023-07-30T10:57:02;6.07;;;3.43;;
11004;SDS011;5555;59.622;16.556;2023-07-30T10:59:35;3.20;;;2.93;;
11004;SDS011;5555;59.622;16.556;2023-07-30T11:02:02;2.80;;;2.60;;
11004;SDS011;5555;59.622;16.556;2023-07-30T11:04:28;3.70;;;3.40;;
11004;SDS011;5555;59.622;16.556;2023-07-30T11:06:53;3.53;;;3.27;;
11004;SDS011;5555;59.622;16.556;2023-07-30T11:11:52;3.50;;;3.20;;
11004;SDS011;5555;59.622;16.556;2023-07-30T11:14:21;4.27;;;3.87;;
11004;SDS011;5555;59.622;16.556;2023-07-30T11:16:51;4.87;;;4.40;;
11004;SDS011;5555;59.622;16.556;2023-07-30T11:19:23;4.63;;;4.23;;
11004;SDS011;5555;59.622;16.556;2023-07-30T11:21:50;6.40;;;4.53;;
11004;SDS011;5555;59.622;16.556;2023-07-30T11:24:16;5.17;;;4.67;;
11004;SDS011;5555;59.622;16.556;2023-07-30T11:26:42;5.90;;;4.37;;
11004;SDS011;5555;59.622;16.556;2023-07-30T11:31:41;4.73;;;4.33;;
11004;SDS011;5555;59.622;16.556;2023-07-30T11:34:08;4.67;;;4.20;;
11004;SDS011;5555;59.622;16.556;2023-07-30T11:36:34;4.60;;;4.03;;
11004;SDS011;5555;59.622;16.556;2023-07-30T11:39:00;3.27;;;2.97;;
11004;SDS011;5555;59.622;16.556;2023-07-30T11:41:26;3.87;;;3.00;;
11004;SDS011;5555;59.622;16.556;2023-07-30T11:43:53;4.10;;;3.00;;
11004;SDS011;5555;59.622;16.556;2023-07-30T11:46:19;3.70;;;3.40;;
11004;SDS011;5555;59.622;16.556;2023-07-30T11:48:47;3.97;;;3.57;;
11004;SDS011;5555;59.622;16.556;2023-07-30T11:53:53;3.77;;;3.47;;
11004;SDS011;5555;59.622;16.556;2023-07-30T11:56:24;3.83;;;3.43;;
11004;SDS011;5555;59.622;16.556;2023-07-30T11:58:51;4.23;;;3.83;;
11004;SDS011;5555;59.622;16.556;2023-07-30T12:01:29;3.97;;;3.67;;
11004;SDS011;5555;59.622;16.556;2023-07-30T12:03:56;4.10;;;3.80;;
11004;SDS011;5555;59.622;16.556;2023-07-30T12:06:23;3.57;;;3.27;;
11004;SDS011;5555;59.622;16.556;2023-07-30T12:08:49;3.77;;;3.43;;
11004;SDS011;5555;59.622;16.556;2023-07-30T12:11:15;3.97;;;3.57;;
11004;SDS011;5555;59.622;16.556;2023-07-30T12:13:44;4.50;;;4.10;;
11004;SDS011;5555;59.622;16.556;2023-07-30T12:16:15;6.00;;;3.50;;
11004;SDS011;5555;59.622;16.556;2023-07-30T12:18:40;3.83;;;3.53;;
11004;SDS011;5555;59.622;16.556;2023-07-30T12:21:06;5.40;;;3.30;;
11004;SDS011;5555;59.622;16.556;2023-07-30T12:23:33;3.83;;;3.30;;
11004;SDS011;5555;59.622;16.556;2023-07-30T12:25:59;3.40;;;3.10;;
11004;SDS011;5555;59.622;16.556;2023-07-30T12:28:25;3.20;;;3.00;;
11004;SDS011;5555;59.622;16.556;2023-07-30T12:30:51;3.57;;;2.77;;
11004;SDS011;5555;59.622;16.556;2023-07-30T12:33:17;4.80;;;2.97;;
11004;SDS011;5555;59.622;16.556;2023-07-30T12:35:43;3.50;;;2.30;;
11004;SDS011;5555;59.622;16.556;2023-07-30T12:38:09;2.85;;;2.55;;
11004;SDS011;5555;59.622;16.556;2023-07-30T12:40:35;2.13;;;1.92;;
11004;SDS011;5555;59.622;16.556;2023-07-30T12:43:01;2.00;;;1.80;;
11004;SDS011;5555;59.622;16.556;2023-07-30T12:45:28;1.83;;;1.73;;
11004;SDS011;5555;59.622;16.556;2023-07-30T12:47:56;2.30;;;1.85;;
11004;SDS011;5555;59.622;16.556;2023-07-30T12:50:22;2.50;;;2.17;;
11004;SDS011;5555;59.622;16.556;2023-07-30T12:52:48;2.33;;;2.13;;
11004;SDS011;5555;59.622;16.556;2023-07-30T12:55:14;2.13;;;1.90;;
11004;SDS011;5555;59.622;16.556;2023-07-30T12:57:39;2.17;;;2.00;;
11004;SDS011;5555;59.622;16.556;2023-07-30T13:00:05;1.77;;;1.63;;
11004;SDS011;5555;59.622;16.556;2023-07-30T13:02:31;1.95;;;1.75;;
11004;SDS011;5555;59.622;16.556;2023-07-30T13:05:00;1.80;;;1.70;;
11004;SDS011;5555;59.622;16.556;2023-07-30T13:07:26;1.70;;;1.60;;
11004;SDS011;5555;59.622;16.556;2023-07-30T13:10:08;1.70;;;1.60;;
11004;SDS011;5555;59.622;16.556;2023-07-30T13:12:34;1.60;;;1.50;;
11004;SDS011;5555;59.622;16.556;2023-07-30T13:15:00;1.80;;;1.70;;
11004;SDS011;5555;59.622;16.556;2023-07-30T13:17:27;2.00;;;1.90;;
11004;SDS011;5555;59.622;16.556;2023-07-30T13:19:53;2.13;;;1.70;;
11004;SDS011;5555;59.622;16.556;2023-07-30T13:22:18;2.70;;;1.60;;
11004;SDS011;5555;59.622;16.556;2023-07-30T13:24:44;2.42;;;1.77;;
11004;SDS011;5555;59.622;16.556;2023-07-30T13:27:10;1.52;;;1.33;;
11004;SDS011;5555;59.622;16.556;2023-07-30T13:29:35;1.25;;;1.15;;
11004;SDS011;5555;59.622;16.556;2023-07-30T13:32:01;4.75;;;1.70;;
11004;SDS011;5555;59.622;16.556;2023-07-30T13:34:27;2.85;;;1.75;;
11004;SDS011;5555;59.622;16.556;2023-07-30T13:36:52;3.10;;;2.03;;
11004;SDS011;5555;59.622;16.556;2023-07-30T13:39:18;1.70;;;1.60;;
11004;SDS011;5555;59.622;16.556;2023-07-30T13:41:44;1.80;;;1.70;;
11004;SDS011;5555;59.622;16.556;2023-07-30T13:44:10;2.00;;;1.77;;
11004;SDS011;5555;59.622;16.556;2023-07-30T13:46:36;2.20;;;1.88;;
11004;SDS011;5555;59.622;16.556;2023-07-30T13:49:02;3.30;;;1.90;;
11004;SDS011;5555;59.622;16.556;2023-07-30T13:51:29;1.10;;;1.00;;
11004;SDS011;5555;59.622;16.556;2023-07-30T13:53:58;1.80;;;1.30;;
11004;SDS011;5555;59.622;16.556;2023-07-30T13:56:24;1.58;;;1.25;;
11004;SDS011;5555;59.622;16.556;2023-07-30T13:58:50;1.40;;;1.30;;
11004;SDS011;5555;59.622;16.556;2023-07-30T14:01:16;0.80;;;0.70;;
11004;SDS011;5555;59.622;16.556;2023-07-30T14:03:42;1.02;;;0.93;;
11004;SDS011;5555;59.622;16.556;2023-07-30T14:06:09;0.60;;;0.60;;
11004;SDS011;5555;59.622;16.556;2023-07-30T14:08:34;0.95;;;0.68;;
11004;SDS011;5555;59.622;16.556;2023-07-30T14:11:00;1.65;;;0.55;;
11004;SDS011;5555;59.622;16.556;2023-07-30T14:13:25;0.60;;;0.60;;
11004;SDS011;5555;59.622;16.556;2023-07-30T14:15:51;2.20;;;0.55;;
11004;SDS011;5555;59.622;16.556;2023-07-30T14:18:17;0.90;;;0.50;;
11004;SDS011;5555;59.622;16.556;2023-07-30T14:20:43;1.67;;;0.80;;
11004;SDS011;5555;59.622;16.556;2023-07-30T14:23:08;1.88;;;0.60;;
11004;SDS011;5555;59.622;16.556;2023-07-30T14:25:35;0.57;;;0.50;;
11004;SDS011;5555;59.622;16.556;2023-07-30T14:28:01;0.75;;;0.60;;
11004;SDS011;5555;59.622;16.556;2023-07-30T14:30:26;0.70;;;0.60;;
11004;SDS011;5555;59.622;16.556;2023-07-30T14:32:52;1.35;;;0.55;;
11004;SDS011;5555;59.622;16.556;2023-07-30T14:35:18;0.50;;;0.50;;
11004;SDS011;5555;59.622;16.556;2023-07-30T14:37:43;1.80;;;0.70;;
11004;SDS011;5555;59.622;16.556;2023-07-30T14:40:09;0.50;;;0.50;;
11004;SDS011;5555;59.622;16.556;2023-07-30T14:42:35;0.90;;;0.50;;
11004;SDS011;5555;59.622;16.556;2023-07-30T14:45:00;0.70;;;0.70;;
11004;SDS011;5555;59.622;16.556;2023-07-30T14:47:26;0.47;;;0.47;;
11004;SDS011;5555;59.622;16.556;2023-07-30T14:49:52;0.73;;;0.68;;
11004;SDS011;5555;59.622;16.556;2023-07-30T14:52:17;0.77;;;0.50;;
11004;SDS011;5555;59.622;16.556;2023-07-30T14:54:46;1.45;;;0.65;;